Home > Products > Valid Products > TAF

000
FTUS41 KRNK 300749 AAB
TAFLWB
TAF AMD
KLWB 300749Z 3008/3106 00000KT 1/4SM FG OVC001
      TEMPO 3009/3013 3SM BR SCT001 SCT035
     FM301400 27005KT P6SM SCT035
     FM301700 28006KT P6SM BKN035 BKN050
     FM310000 00000KT P6SM SCT050=



000
FTUS41 KRNK 300749 AAB
TAFLWB
TAF AMD
KLWB 300749Z 3008/3106 00000KT 1/4SM FG OVC001
      TEMPO 3009/3013 3SM BR SCT001 SCT035
     FM301400 27005KT P6SM SCT035
     FM301700 28006KT P6SM BKN035 BKN050
     FM310000 00000KT P6SM SCT050=



000
FTUS41 KRNK 300643 AAA
TAFLWB
TAF AMD
KLWB 300643Z 3007/3106 00000KT 4SM BR SCT035
      TEMPO 3009/3013 1/2SM FG SCT001 BKN025
     FM301400 27005KT P6SM SCT035
     FM301700 28006KT P6SM BKN035 BKN050
     FM310000 00000KT P6SM SCT050=



000
FTUS41 KRNK 300643 AAA
TAFLWB
TAF AMD
KLWB 300643Z 3007/3106 00000KT 4SM BR SCT035
      TEMPO 3009/3013 1/2SM FG SCT001 BKN025
     FM301400 27005KT P6SM SCT035
     FM301700 28006KT P6SM BKN035 BKN050
     FM310000 00000KT P6SM SCT050=



000
FTUS41 KRNK 300643 CCA
TAFLWB
TAF COR
KLWB 300643Z 3007/3106 00000KT 4SM BR SCT035
      TEMPO 3008/3012 1/2SM FG SCT001 BKN025
     FM301400 27005KT P6SM SCT035
     FM301700 28006KT P6SM BKN035 BKN050
     FM310000 00000KT P6SM SCT050=



000
FTUS41 KRNK 300643 CCA
TAFLWB
TAF COR
KLWB 300643Z 3007/3106 00000KT 4SM BR SCT035
      TEMPO 3008/3012 1/2SM FG SCT001 BKN025
     FM301400 27005KT P6SM SCT035
     FM301700 28006KT P6SM BKN035 BKN050
     FM310000 00000KT P6SM SCT050=



000
FTUS41 KRNK 300525
TAFLWB
TAF
KLWB 300525Z 3006/3106 00000KT P6SM SCT035
     FM300800 27005KT 5SM BR SCT018 SCT040
      TEMPO 3009/3013 1SM BR SCT001 BKN025
     FM301400 27005KT P6SM SCT035
     FM301700 28006KT P6SM BKN035 BKN050
     FM310000 00000KT P6SM SCT050=



000
FTUS41 KRNK 300525
TAFLYH
TAF
KLYH 300525Z 3006/3106 01004KT P6SM BKN040 BKN080
     FM301700 22006KT P6SM SCT060 SCT150
     FM302100 23004KT P6SM BKN060 BKN120=



000
FTUS41 KRNK 300525
TAFROA
TAF
KROA 300525Z 3006/3106 33005KT P6SM BKN080
     FM301600 27008KT P6SM SCT050 SCT120
     FM302000 23007KT P6SM BKN060
     FM310100 31004KT P6SM SCT045 SCT100=



000
FTUS41 KRNK 300525
TAFBLF
TAF
KBLF 300525Z 3006/3106 24004KT P6SM SCT020
     FM300900 27005KT P6SM SCT015 BKN045
      TEMPO 3010/3013 BKN015
     FM301500 27007KT P6SM SCT035
     FM301700 28008KT P6SM BKN040
     FM310000 32004KT P6SM SCT045=



000
FTUS41 KRNK 300525
TAFDAN
TAF
KDAN 300525Z 3006/3106 05006KT P6SM VCSH BKN050 OVC080
     FM301800 24005KT P6SM SCT060 SCT120=



000
FTUS41 KRNK 300525
TAFBLF
TAF
KBLF 300525Z 3006/3106 24004KT P6SM SCT020
     FM300900 27005KT P6SM SCT015 BKN045
      TEMPO 3010/3013 BKN015
     FM301500 27007KT P6SM SCT035
     FM301700 28008KT P6SM BKN040
     FM310000 32004KT P6SM SCT045=



000
FTUS41 KRNK 300525
TAFROA
TAF
KROA 300525Z 3006/3106 33005KT P6SM BKN080
     FM301600 27008KT P6SM SCT050 SCT120
     FM302000 23007KT P6SM BKN060
     FM310100 31004KT P6SM SCT045 SCT100=



000
FTUS41 KRNK 300525
TAFLYH
TAF
KLYH 300525Z 3006/3106 01004KT P6SM BKN040 BKN080
     FM301700 22006KT P6SM SCT060 SCT150
     FM302100 23004KT P6SM BKN060 BKN120=



000
FTUS41 KRNK 300525
TAFDAN
TAF
KDAN 300525Z 3006/3106 05006KT P6SM VCSH BKN050 OVC080
     FM301800 24005KT P6SM SCT060 SCT120=



000
FTUS41 KRNK 300525
TAFLWB
TAF
KLWB 300525Z 3006/3106 00000KT P6SM SCT035
     FM300800 27005KT 5SM BR SCT018 SCT040
      TEMPO 3009/3013 1SM BR SCT001 BKN025
     FM301400 27005KT P6SM SCT035
     FM301700 28006KT P6SM BKN035 BKN050
     FM310000 00000KT P6SM SCT050=



000
FTUS41 KRNK 292334
TAFLYH
TAF
KLYH 292334Z 3000/3024 VRB03KT P6SM SCT060 BKN100
     FM301700 22006KT P6SM BKN070 BKN110=



000
FTUS41 KRNK 292334
TAFLWB
TAF
KLWB 292334Z 3000/3024 32004KT P6SM SCT040 BKN080
     FM300400 VRB03KT P6SM BKN040
     FM300800 27005KT 5SM BR SCT018 BKN030
      TEMPO 3009/3013 3SM BR BKN018
     FM301500 27005KT P6SM SCT027 BKN035
     FM301700 28006KT P6SM VCSH BKN035 BKN050=



000
FTUS41 KRNK 292334
TAFBLF
TAF
KBLF 292334Z 3000/3024 30007KT P6SM BKN040 BKN060
     FM300400 29006KT P6SM BKN035
     FM300900 27005KT P6SM SCT015 BKN025
      TEMPO 3010/3013 BKN015
     FM301500 27007KT P6SM SCT025 BKN035
     FM301700 28008KT P6SM VCSH BKN035 BKN050=



000
FTUS41 KRNK 292334
TAFDAN
TAF
KDAN 292334Z 3000/3024 VRB03KT P6SM SCT060 BKN110
     FM301800 24005KT P6SM SCT060 BKN110=



000
FTUS41 KRNK 292334
TAFDAN
TAF
KDAN 292334Z 3000/3024 VRB03KT P6SM SCT060 BKN110
     FM301800 24005KT P6SM SCT060 BKN110=



000
FTUS41 KRNK 292334
TAFLWB
TAF
KLWB 292334Z 3000/3024 32004KT P6SM SCT040 BKN080
     FM300400 VRB03KT P6SM BKN040
     FM300800 27005KT 5SM BR SCT018 BKN030
      TEMPO 3009/3013 3SM BR BKN018
     FM301500 27005KT P6SM SCT027 BKN035
     FM301700 28006KT P6SM VCSH BKN035 BKN050=



000
FTUS41 KRNK 292334
TAFROA
TAF
KROA 292334Z 3000/3024 31007KT P6SM SCT060 BKN100
     FM301600 27008KT P6SM BKN060 BKN100=



000
FTUS41 KRNK 292334
TAFLYH
TAF
KLYH 292334Z 3000/3024 VRB03KT P6SM SCT060 BKN100
     FM301700 22006KT P6SM BKN070 BKN110=



000
FTUS41 KRNK 292334
TAFBLF
TAF
KBLF 292334Z 3000/3024 30007KT P6SM BKN040 BKN060
     FM300400 29006KT P6SM BKN035
     FM300900 27005KT P6SM SCT015 BKN025
      TEMPO 3010/3013 BKN015
     FM301500 27007KT P6SM SCT025 BKN035
     FM301700 28008KT P6SM VCSH BKN035 BKN050=



000
FTUS41 KRNK 292334
TAFROA
TAF
KROA 292334Z 3000/3024 31007KT P6SM SCT060 BKN100
     FM301600 27008KT P6SM BKN060 BKN100=



000
FTUS41 KRNK 291729
TAFDAN
TAF
KDAN 291729Z 2918/3018 31004KT P6SM SCT070=



000
FTUS41 KRNK 291729
TAFLWB
TAF
KLWB 291729Z 2918/3018 30005KT P6SM VCSH SCT040 BKN070
     FM292300 VRB03KT P6SM SCT100
     FM300600 00000KT 4SM BR FEW005
     FM301000 00000KT 2SM BR BKN005
     FM301300 29003KT P6SM FEW005 BKN040=



000
FTUS41 KRNK 291729
TAFROA
TAF
KROA 291729Z 2918/3018 21003KT P6SM FEW040 BKN070
     FM292000 28008KT P6SM SCT050 BKN080
     FM300100 31003KT P6SM FEW100
     FM301700 25007KT P6SM SCT060=



000
FTUS41 KRNK 291729
TAFROA
TAF
KROA 291729Z 2918/3018 21003KT P6SM FEW040 BKN070
     FM292000 28008KT P6SM SCT050 BKN080
     FM300100 31003KT P6SM FEW100
     FM301700 25007KT P6SM SCT060=



000
FTUS41 KRNK 291729
TAFBLF
TAF
KBLF 291729Z 2918/3018 25008KT P6SM FEW030 SCT040 BKN060
     FM292000 30008KT P6SM SCT040 BKN060
     FM300100 27003KT P6SM SCT040
     FM300900 24003KT 6SM BR SCT008 BKN025
     FM301300 29006KT P6SM FEW020 SCT040=



000
FTUS41 KRNK 291729
TAFLYH
TAF
KLYH 291729Z 2918/3018 26005KT P6SM FEW050 BKN080
     FM300100 00000KT P6SM FEW100
     FM301600 25005KT P6SM FEW060=



000
FTUS41 KRNK 291729
TAFLWB
TAF
KLWB 291729Z 2918/3018 30005KT P6SM VCSH SCT040 BKN070
     FM292300 VRB03KT P6SM SCT100
     FM300600 00000KT 4SM BR FEW005
     FM301000 00000KT 2SM BR BKN005
     FM301300 29003KT P6SM FEW005 BKN040=



000
FTUS41 KRNK 291729
TAFBLF
TAF
KBLF 291729Z 2918/3018 25008KT P6SM FEW030 SCT040 BKN060
     FM292000 30008KT P6SM SCT040 BKN060
     FM300100 27003KT P6SM SCT040
     FM300900 24003KT 6SM BR SCT008 BKN025
     FM301300 29006KT P6SM FEW020 SCT040=



000
FTUS41 KRNK 291729
TAFLYH
TAF
KLYH 291729Z 2918/3018 26005KT P6SM FEW050 BKN080
     FM300100 00000KT P6SM FEW100
     FM301600 25005KT P6SM FEW060=



000
FTUS41 KRNK 291729
TAFDAN
TAF
KDAN 291729Z 2918/3018 31004KT P6SM SCT070=



000
FTUS41 KRNK 291353 AAB
TAFLWB
TAF AMD
KLWB 291353Z 2914/3012 22004KT P6SM VCSH SCT010 SCT020 BKN050
      TEMPO 2914/2917 BKN020
     FM291700 29007KT P6SM VCSH SCT025 BKN040
     FM300000 VRB03KT P6SM SCT040
     FM300400 00000KT 3SM BR SKC
     FM300600 00000KT 1SM BR SCT001=



000
FTUS41 KRNK 291353 AAB
TAFLWB
TAF AMD
KLWB 291353Z 2914/3012 22004KT P6SM VCSH SCT010 SCT020 BKN050
      TEMPO 2914/2917 BKN020
     FM291700 29007KT P6SM VCSH SCT025 BKN040
     FM300000 VRB03KT P6SM SCT040
     FM300400 00000KT 3SM BR SKC
     FM300600 00000KT 1SM BR SCT001=



000
FTUS41 KRNK 291352 AAB
TAFBLF
TAF AMD
KBLF 291352Z 2914/3012 26004KT P6SM SCT015 BKN050
      TEMPO 2914/2916 BKN015
     FM291600 29010KT P6SM VCSH FEW020 BKN040
     FM300000 VRB03KT P6SM SCT040=



000
FTUS41 KRNK 291352 AAB
TAFBLF
TAF AMD
KBLF 291352Z 2914/3012 26004KT P6SM SCT015 BKN050
      TEMPO 2914/2916 BKN015
     FM291600 29010KT P6SM VCSH FEW020 BKN040
     FM300000 VRB03KT P6SM SCT040=



000
FTUS41 KRNK 291243 AAA
TAFLWB
TAF AMD
KLWB 291243Z 2913/3012 00000KT P6SM SCT030 BKN050
     FM291600 29007KT P6SM VCSH SCT025 BKN040
     FM300000 VRB03KT P6SM SCT040
     FM300400 00000KT 3SM BR SKC
     FM300600 00000KT 1SM BR SCT001=



000
FTUS41 KRNK 291243 AAA
TAFLWB
TAF AMD
KLWB 291243Z 2913/3012 00000KT P6SM SCT030 BKN050
     FM291600 29007KT P6SM VCSH SCT025 BKN040
     FM300000 VRB03KT P6SM SCT040
     FM300400 00000KT 3SM BR SKC
     FM300600 00000KT 1SM BR SCT001=



000
FTUS41 KRNK 291242 AAA
TAFBLF
TAF AMD
KBLF 291242Z 2913/3012 26004KT P6SM SCT010 BKN050
     FM291600 29010KT P6SM VCSH BKN040
     FM300000 VRB03KT P6SM SCT040=



000
FTUS41 KRNK 291242 AAA
TAFBLF
TAF AMD
KBLF 291242Z 2913/3012 26004KT P6SM SCT010 BKN050
     FM291600 29010KT P6SM VCSH BKN040
     FM300000 VRB03KT P6SM SCT040=



000
FTUS41 KRNK 291121
TAFLYH
TAF
KLYH 291121Z 2912/3012 VRB03KT P6SM SCT050
     FM291500 28006KT P6SM BKN050
     FM292300 VRB03KT P6SM SCT050=



000
FTUS41 KRNK 291121
TAFLWB
TAF
KLWB 291121Z 2912/3012 00000KT 4SM BR SCT040
      TEMPO 2912/2913 2SM BR BKN040
     FM291600 29007KT P6SM VCSH SCT025 BKN040
     FM300000 VRB03KT P6SM SCT040
     FM300400 00000KT 3SM BR SKC
     FM300600 00000KT 1SM BR SCT001=



000
FTUS41 KRNK 291121
TAFBLF
TAF
KBLF 291121Z 2912/3012 29007KT P6SM SCT006
      TEMPO 2912/2913 P6SM BKN008
     FM291600 29010KT P6SM VCSH BKN040
     FM300000 VRB03KT P6SM SCT040=



000
FTUS41 KRNK 291121
TAFDAN
TAF
KDAN 291121Z 2912/3012 VRB03KT P6SM BKN060
     FM291500 31005KT P6SM SCT050=



000
FTUS41 KRNK 291121
TAFROA
TAF
KROA 291121Z 2912/3012 VRB03KT P6SM BKN060
     FM291700 30008KT P6SM VCSH BKN050
     FM292300 30004KT P6SM SCT050=



000
FTUS41 KRNK 291121
TAFLYH
TAF
KLYH 291121Z 2912/3012 VRB03KT P6SM SCT050
     FM291500 28006KT P6SM BKN050
     FM292300 VRB03KT P6SM SCT050=



000
FTUS41 KRNK 291121
TAFDAN
TAF
KDAN 291121Z 2912/3012 VRB03KT P6SM BKN060
     FM291500 31005KT P6SM SCT050=



000
FTUS41 KRNK 291121
TAFBLF
TAF
KBLF 291121Z 2912/3012 29007KT P6SM SCT006
      TEMPO 2912/2913 P6SM BKN008
     FM291600 29010KT P6SM VCSH BKN040
     FM300000 VRB03KT P6SM SCT040=



000
FTUS41 KRNK 291121
TAFROA
TAF
KROA 291121Z 2912/3012 VRB03KT P6SM BKN060
     FM291700 30008KT P6SM VCSH BKN050
     FM292300 30004KT P6SM SCT050=



000
FTUS41 KRNK 291121
TAFLWB
TAF
KLWB 291121Z 2912/3012 00000KT 4SM BR SCT040
      TEMPO 2912/2913 2SM BR BKN040
     FM291600 29007KT P6SM VCSH SCT025 BKN040
     FM300000 VRB03KT P6SM SCT040
     FM300400 00000KT 3SM BR SKC
     FM300600 00000KT 1SM BR SCT001=



000
FTUS41 KRNK 291009 AAB
TAFBLF
TAF AMD
KBLF 291009Z 2910/3006 29006KT P6SM BKN006
     FM291500 30008KT P6SM -SHRA SCT025 BKN040
     FM300000 00000KT P6SM SCT030=



000
FTUS41 KRNK 291009 AAB
TAFBLF
TAF AMD
KBLF 291009Z 2910/3006 29006KT P6SM BKN006
     FM291500 30008KT P6SM -SHRA SCT025 BKN040
     FM300000 00000KT P6SM SCT030=



000
FTUS41 KRNK 290544 AAA
TAFBLF
TAF AMD
KBLF 290544Z 2906/3006 27006KT P6SM BKN009 BKN015 OVC040
     FM291500 30008KT P6SM -SHRA SCT025 BKN040
     FM300000 00000KT P6SM SCT030=



000
FTUS41 KRNK 290544 AAA
TAFBLF
TAF AMD
KBLF 290544Z 2906/3006 27006KT P6SM BKN009 BKN015 OVC040
     FM291500 30008KT P6SM -SHRA SCT025 BKN040
     FM300000 00000KT P6SM SCT030=



000
FTUS41 KRNK 290539
TAFDAN
TAF
KDAN 290539Z 2906/3006 24003KT P6SM FEW100
     FM291800 32005KT P6SM SCT050
     FM300000 VRB03KT P6SM SKC=



000
FTUS41 KRNK 290539
TAFLYH
TAF
KLYH 290539Z 2906/3006 30003KT P6SM BKN090
     FM291800 30006KT P6SM -SHRA BKN050
     FM292200 30007KT P6SM SCT050=



000
FTUS41 KRNK 290539
TAFLWB
TAF
KLWB 290539Z 2906/3006 00000KT P6SM SCT040 OVC050
      TEMPO 2910/2913 3SM BR
     FM291600 30005KT P6SM -SHRA SCT025 BKN040
     FM300000 00000KT P6SM SCT250=



000
FTUS41 KRNK 290539
TAFBLF
TAF
KBLF 290539Z 2906/3006 27006KT P6SM FEW009 BKN045 OVC070
     FM290700 29004KT 5SM BR OVC011
      TEMPO 2908/2912 5SM BR OVC009
     FM291500 30008KT P6SM -SHRA SCT025 BKN040
     FM300000 00000KT P6SM SCT030=



000
FTUS41 KRNK 290539
TAFLYH
TAF
KLYH 290539Z 2906/3006 30003KT P6SM BKN090
     FM291800 30006KT P6SM -SHRA BKN050
     FM292200 30007KT P6SM SCT050=



000
FTUS41 KRNK 290539
TAFLWB
TAF
KLWB 290539Z 2906/3006 00000KT P6SM SCT040 OVC050
      TEMPO 2910/2913 3SM BR
     FM291600 30005KT P6SM -SHRA SCT025 BKN040
     FM300000 00000KT P6SM SCT250=



000
FTUS41 KRNK 290539
TAFDAN
TAF
KDAN 290539Z 2906/3006 24003KT P6SM FEW100
     FM291800 32005KT P6SM SCT050
     FM300000 VRB03KT P6SM SKC=



000
FTUS41 KRNK 290539
TAFROA
TAF
KROA 290539Z 2906/3006 28003KT P6SM SCT100
     FM291700 30010KT P6SM -SHRA BKN040
     FM292300 30007KT P6SM SCT050=



000
FTUS41 KRNK 290539
TAFBLF
TAF
KBLF 290539Z 2906/3006 27006KT P6SM FEW009 BKN045 OVC070
     FM290700 29004KT 5SM BR OVC011
      TEMPO 2908/2912 5SM BR OVC009
     FM291500 30008KT P6SM -SHRA SCT025 BKN040
     FM300000 00000KT P6SM SCT030=



000
FTUS41 KRNK 290539
TAFROA
TAF
KROA 290539Z 2906/3006 28003KT P6SM SCT100
     FM291700 30010KT P6SM -SHRA BKN040
     FM292300 30007KT P6SM SCT050=



000
FTUS41 KRNK 282337
TAFBLF
TAF
KBLF 282337Z 2900/2924 31007KT P6SM FEW022 BKN070
      TEMPO 2900/2903 BKN022
     FM290600 31005KT 6SM BR OVC011
      TEMPO 2908/2910 5SM BR OVC009
     FM291600 30008KT P6SM SCT025 BKN040
     FM291900 31007KT P6SM SCT040=



000
FTUS41 KRNK 282337
TAFLWB
TAF
KLWB 282337Z 2900/2924 30007KT P6SM SCT026 BKN040
      TEMPO 2900/2902 BKN026
     FM290600 00000KT 2SM BR BKN020
     FM290900 00000KT 1 1/2SM BR BKN004
      TEMPO 2910/2912 1/2SM FG OVC001
     FM291330 28004KT 5SM BR BKN012
     FM291530 30005KT P6SM SCT015 BKN040
     FM291800 31008KT P6SM SCT040=



000
FTUS41 KRNK 282337
TAFLYH
TAF
KLYH 282337Z 2900/2924 30006KT P6SM FEW090
     FM291700 30004KT P6SM FEW040=



000
FTUS41 KRNK 282337
TAFROA
TAF
KROA 282337Z 2900/2924 31010G18KT P6SM FEW050
     FM290400 31006KT P6SM FEW080
     FM291600 30007KT P6SM BKN040
     FM292200 31008KT P6SM SCT050=



000
FTUS41 KRNK 282337
TAFDAN
TAF
KDAN 282337Z 2900/2924 32007KT P6SM FEW090
     FM291600 32005KT P6SM FEW050=



000
FTUS41 KRNK 282337
TAFBLF
TAF
KBLF 282337Z 2900/2924 31007KT P6SM FEW022 BKN070
      TEMPO 2900/2903 BKN022
     FM290600 31005KT 6SM BR OVC011
      TEMPO 2908/2910 5SM BR OVC009
     FM291600 30008KT P6SM SCT025 BKN040
     FM291900 31007KT P6SM SCT040=



000
FTUS41 KRNK 282337
TAFDAN
TAF
KDAN 282337Z 2900/2924 32007KT P6SM FEW090
     FM291600 32005KT P6SM FEW050=



000
FTUS41 KRNK 282337
TAFLWB
TAF
KLWB 282337Z 2900/2924 30007KT P6SM SCT026 BKN040
      TEMPO 2900/2902 BKN026
     FM290600 00000KT 2SM BR BKN020
     FM290900 00000KT 1 1/2SM BR BKN004
      TEMPO 2910/2912 1/2SM FG OVC001
     FM291330 28004KT 5SM BR BKN012
     FM291530 30005KT P6SM SCT015 BKN040
     FM291800 31008KT P6SM SCT040=



000
FTUS41 KRNK 282337
TAFLYH
TAF
KLYH 282337Z 2900/2924 30006KT P6SM FEW090
     FM291700 30004KT P6SM FEW040=



000
FTUS41 KRNK 282337
TAFROA
TAF
KROA 282337Z 2900/2924 31010G18KT P6SM FEW050
     FM290400 31006KT P6SM FEW080
     FM291600 30007KT P6SM BKN040
     FM292200 31008KT P6SM SCT050=



000
FTUS41 KRNK 281722
TAFLWB
TAF
KLWB 281722Z 2818/2918 28007G17KT P6SM VCSH SCT040 BKN070
     FM282100 30006KT P6SM VCSH BKN040
     FM290100 00000KT 5SM BR SCT025 BKN040
     FM290500 00000KT 2SM BR BKN025
     FM291000 00000KT 1SM BR SCT001 BKN015
     FM291300 28004KT P6SM SCT015 BKN040=



000
FTUS41 KRNK 281722
TAFROA
TAF
KROA 281722Z 2818/2918 30018G28KT P6SM BKN060
     FM282200 31012KT P6SM SCT060
     FM290400 29004KT P6SM FEW100
     FM291400 29007KT P6SM SCT040 BKN060=



000
FTUS41 KRNK 281722
TAFDAN
TAF
KDAN 281722Z 2818/2918 29010G20KT P6SM SCT070
     FM282300 31008KT P6SM SKC
     FM290400 33004KT P6SM FEW100
     FM291600 29007KT P6SM FEW060=



000
FTUS41 KRNK 281722
TAFDAN
TAF
KDAN 281722Z 2818/2918 29010G20KT P6SM SCT070
     FM282300 31008KT P6SM SKC
     FM290400 33004KT P6SM FEW100
     FM291600 29007KT P6SM FEW060=



000
FTUS41 KRNK 281722
TAFBLF
TAF
KBLF 281722Z 2818/2918 30010G20KT P6SM VCSH SCT025 BKN040
     FM282300 30008KT P6SM BKN025
     FM290600 29004KT 5SM BR BKN015
     FM291400 28006KT P6SM SCT015 BKN025
     FM291600 29009KT P6SM SCT025 BKN040=



000
FTUS41 KRNK 281722
TAFLYH
TAF
KLYH 281722Z 2818/2918 25009KT P6SM BKN080
      TEMPO 2818/2821 25009G18KT
     FM282300 28004KT P6SM FEW100
     FM291500 29006KT P6SM FEW040 SCT060=



000
FTUS41 KRNK 281722
TAFLWB
TAF
KLWB 281722Z 2818/2918 28007G17KT P6SM VCSH SCT040 BKN070
     FM282100 30006KT P6SM VCSH BKN040
     FM290100 00000KT 5SM BR SCT025 BKN040
     FM290500 00000KT 2SM BR BKN025
     FM291000 00000KT 1SM BR SCT001 BKN015
     FM291300 28004KT P6SM SCT015 BKN040=



000
FTUS41 KRNK 281722
TAFBLF
TAF
KBLF 281722Z 2818/2918 30010G20KT P6SM VCSH SCT025 BKN040
     FM282300 30008KT P6SM BKN025
     FM290600 29004KT 5SM BR BKN015
     FM291400 28006KT P6SM SCT015 BKN025
     FM291600 29009KT P6SM SCT025 BKN040=



000
FTUS41 KRNK 281722
TAFROA
TAF
KROA 281722Z 2818/2918 30018G28KT P6SM BKN060
     FM282200 31012KT P6SM SCT060
     FM290400 29004KT P6SM FEW100
     FM291400 29007KT P6SM SCT040 BKN060=



000
FTUS41 KRNK 281722
TAFLYH
TAF
KLYH 281722Z 2818/2918 25009KT P6SM BKN080
      TEMPO 2818/2821 25009G18KT
     FM282300 28004KT P6SM FEW100
     FM291500 29006KT P6SM FEW040 SCT060=



000
FTUS41 KRNK 281508 AAB
TAFBLF
TAF AMD
KBLF 281508Z 2815/2912 28012G22KT P6SM FEW020 BKN040
     FM281600 28015G25KT P6SM SCT025 BKN050
     FM282200 30008KT P6SM BKN040
     FM290400 30004KT P6SM BKN015=



000
FTUS41 KRNK 281508 AAB
TAFBLF
TAF AMD
KBLF 281508Z 2815/2912 28012G22KT P6SM FEW020 BKN040
     FM281600 28015G25KT P6SM SCT025 BKN050
     FM282200 30008KT P6SM BKN040
     FM290400 30004KT P6SM BKN015=



000
FTUS41 KRNK 281406 AAA
TAFLWB
TAF AMD
KLWB 281406Z 2814/2912 29010G18KT P6SM VCSH SCT030 BKN060
     FM282200 31008KT P6SM BKN040
     FM290500 VRB03KT 4SM BR BKN040
     FM290700 VRB03KT 1SM BR SCT001 BKN025=



000
FTUS41 KRNK 281337 AAA
TAFROA
TAF AMD
KROA 281337Z 2814/2912 30014G24KT P6SM BKN040
     FM282200 31008KT P6SM SCT035
     FM290400 30004KT P6SM SKC=



000
FTUS41 KRNK 281337 AAA
TAFROA
TAF AMD
KROA 281337Z 2814/2912 30014G24KT P6SM BKN040
     FM282200 31008KT P6SM SCT035
     FM290400 30004KT P6SM SKC=



000
FTUS41 KRNK 281336 AAA
TAFBLF
TAF AMD
KBLF 281336Z 2814/2912 28012G22KT P6SM SCT015 BKN025 OVC050
      TEMPO 2814/2816 BKN015
     FM281600 28015G25KT P6SM SCT025 BKN050
      TEMPO 2816/2818 BKN025
     FM282200 30008KT P6SM BKN040
     FM290400 30004KT P6SM BKN015=



000
FTUS41 KRNK 281336 AAA
TAFBLF
TAF AMD
KBLF 281336Z 2814/2912 28012G22KT P6SM SCT015 BKN025 OVC050
      TEMPO 2814/2816 BKN015
     FM281600 28015G25KT P6SM SCT025 BKN050
      TEMPO 2816/2818 BKN025
     FM282200 30008KT P6SM BKN040
     FM290400 30004KT P6SM BKN015=



000
FTUS41 KRNK 281123
TAFROA
TAF
KROA 281123Z 2812/2912 26009KT P6SM FEW025 SCT080
     FM281400 30014G24KT P6SM BKN035
     FM282200 31008KT P6SM SCT035
     FM290400 30004KT P6SM SKC=



000
FTUS41 KRNK 281123
TAFDAN
TAF
KDAN 281123Z 2812/2912 24009KT P6SM SKC
     FM281400 29011G21KT P6SM SCT050
     FM282200 31007KT P6SM SKC
     FM290600 34005KT P6SM SKC=



000
FTUS41 KRNK 281123
TAFLYH
TAF
KLYH 281123Z 2812/2912 24005KT P6SM FEW080
     FM281400 28011G21KT P6SM SCT050
     FM282200 31006KT P6SM SKC
     FM290500 32004KT P6SM SKC=



000
FTUS41 KRNK 281123
TAFLWB
TAF
KLWB 281123Z 2812/2912 27010KT P6SM VCSH SCT025 SCT070
     FM281400 29010G18KT P6SM VCSH BKN030
     FM282200 31008KT P6SM BKN040
     FM290500 VRB03KT 4SM BR BKN040
     FM290700 VRB03KT 1SM BR SCT001 BKN025=



000
FTUS41 KRNK 281123
TAFBLF
TAF
KBLF 281123Z 2812/2912 26012KT P6SM VCSH BKN010
     FM281400 28012G22KT P6SM VCSH BKN015
     FM281600 28012G22KT P6SM VCSH BKN035
     FM282200 30008KT P6SM BKN035
     FM290400 30004KT P6SM BKN015=



000
FTUS41 KRNK 281123
TAFLWB
TAF
KLWB 281123Z 2812/2912 27010KT P6SM VCSH SCT025 SCT070
     FM281400 29010G18KT P6SM VCSH BKN030
     FM282200 31008KT P6SM BKN040
     FM290500 VRB03KT 4SM BR BKN040
     FM290700 VRB03KT 1SM BR SCT001 BKN025=



000
FTUS41 KRNK 281123
TAFLYH
TAF
KLYH 281123Z 2812/2912 24005KT P6SM FEW080
     FM281400 28011G21KT P6SM SCT050
     FM282200 31006KT P6SM SKC
     FM290500 32004KT P6SM SKC=



000
FTUS41 KRNK 281123
TAFBLF
TAF
KBLF 281123Z 2812/2912 26012KT P6SM VCSH BKN010
     FM281400 28012G22KT P6SM VCSH BKN015
     FM281600 28012G22KT P6SM VCSH BKN035
     FM282200 30008KT P6SM BKN035
     FM290400 30004KT P6SM BKN015=



000
FTUS41 KRNK 281123
TAFDAN
TAF
KDAN 281123Z 2812/2912 24009KT P6SM SKC
     FM281400 29011G21KT P6SM SCT050
     FM282200 31007KT P6SM SKC
     FM290600 34005KT P6SM SKC=



000
FTUS41 KRNK 281123
TAFROA
TAF
KROA 281123Z 2812/2912 26009KT P6SM FEW025 SCT080
     FM281400 30014G24KT P6SM BKN035
     FM282200 31008KT P6SM SCT035
     FM290400 30004KT P6SM SKC=



000
FTUS41 KRNK 280957 AAA
TAFLYH
TAF AMD
KLYH 280957Z 2810/2906 24005KT P6SM SCT080
     FM281400 28010G20KT P6SM SCT050
     FM282200 31005KT P6SM SKC=



000
FTUS41 KRNK 280957 AAA
TAFLYH
TAF AMD
KLYH 280957Z 2810/2906 24005KT P6SM SCT080
     FM281400 28010G20KT P6SM SCT050
     FM282200 31005KT P6SM SKC=



000
FTUS41 KRNK 280821 AAA
TAFBLF
TAF AMD
KBLF 280821Z 2808/2906 26009KT P6SM BKN005 OVC008
     FM281400 28012G22KT P6SM BKN020
     FM282200 30012KT P6SM VCSH BKN015=



000
FTUS41 KRNK 280821 AAA
TAFBLF
TAF AMD
KBLF 280821Z 2808/2906 26009KT P6SM BKN005 OVC008
     FM281400 28012G22KT P6SM BKN020
     FM282200 30012KT P6SM VCSH BKN015=



000
FTUS41 KRNK 280540
TAFLYH
TAF
KLYH 280540Z 2806/2906 00000KT 6SM BR SCT250
      TEMPO 2806/2810 5SM BR
     FM281400 28010G20KT P6SM SCT050
     FM282200 31005KT P6SM SKC=



000
FTUS41 KRNK 280540
TAFLYH
TAF
KLYH 280540Z 2806/2906 00000KT 6SM BR SCT250
      TEMPO 2806/2810 5SM BR
     FM281400 28010G20KT P6SM SCT050
     FM282200 31005KT P6SM SKC=



000
FTUS41 KRNK 280540
TAFLWB
TAF
KLWB 280540Z 2806/2906 00000KT P6SM SCT022 SCT035
     FM280900 27006KT P6SM VCSH OVC020
     FM281400 30010G18KT P6SM BKN030
     FM282200 30008KT P6SM VCSH BKN025=



000
FTUS41 KRNK 280540
TAFROA
TAF
KROA 280540Z 2806/2906 24010KT P6SM FEW045 SCT250
     FM280700 28010G18KT P6SM SCT035
     FM281400 30015G27KT P6SM SCT040
     FM282200 31010KT P6SM SCT035=



000
FTUS41 KRNK 280540
TAFBLF
TAF
KBLF 280540Z 2806/2906 25010KT P6SM -SHRA VCTS SCT025 BKN035CB
      TEMPO 2806/2808 25015G25KT 3SM -TSRA
     FM280900 28010G20KT P6SM VCSH OVC012
     FM281400 28012G22KT P6SM BKN020
     FM282200 30012KT P6SM VCSH BKN015=



000
FTUS41 KRNK 280540
TAFDAN
TAF
KDAN 280540Z 2806/2906 20004KT P6SM SCT250
     FM281400 29010G20KT P6SM SCT050
     FM282200 32007KT P6SM SKC=



000
FTUS41 KRNK 280540
TAFROA
TAF
KROA 280540Z 2806/2906 24010KT P6SM FEW045 SCT250
     FM280700 28010G18KT P6SM SCT035
     FM281400 30015G27KT P6SM SCT040
     FM282200 31010KT P6SM SCT035=



000
FTUS41 KRNK 280540
TAFBLF
TAF
KBLF 280540Z 2806/2906 25010KT P6SM -SHRA VCTS SCT025 BKN035CB
      TEMPO 2806/2808 25015G25KT 3SM -TSRA
     FM280900 28010G20KT P6SM VCSH OVC012
     FM281400 28012G22KT P6SM BKN020
     FM282200 30012KT P6SM VCSH BKN015=



000
FTUS41 KRNK 280540
TAFDAN
TAF
KDAN 280540Z 2806/2906 20004KT P6SM SCT250
     FM281400 29010G20KT P6SM SCT050
     FM282200 32007KT P6SM SKC=



000
FTUS41 KRNK 280540
TAFLWB
TAF
KLWB 280540Z 2806/2906 00000KT P6SM SCT022 SCT035
     FM280900 27006KT P6SM VCSH OVC020
     FM281400 30010G18KT P6SM BKN030
     FM282200 30008KT P6SM VCSH BKN025=



000
FTUS41 KRNK 280213 AAB
TAFBLF
TAF AMD
KBLF 280213Z 2802/2824 26010KT P6SM SCT030 OVC050
      TEMPO 2804/2806 3SM -TSRA BR BKN017CB
     FM280600 27012G22KT 5SM -SHRA BR BKN015 OVC025
     FM280900 27010G20KT P6SM VCSH OVC015
     FM281400 28015G27KT P6SM OVC023=



000
FTUS41 KRNK 280213 AAB
TAFBLF
TAF AMD
KBLF 280213Z 2802/2824 26010KT P6SM SCT030 OVC050
      TEMPO 2804/2806 3SM -TSRA BR BKN017CB
     FM280600 27012G22KT 5SM -SHRA BR BKN015 OVC025
     FM280900 27010G20KT P6SM VCSH OVC015
     FM281400 28015G27KT P6SM OVC023=



000
FTUS41 KRNK 280210 AAA
TAFLWB
TAF AMD
KLWB 280210Z 2802/2824 25007KT P6SM SCT030 OVC050
      TEMPO 2804/2806 3SM -TSRA BR BKN017CB
     FM280600 27010G16KT 4SM -SHRA BR BKN017 OVC027
     FM281000 27007KT P6SM VCSH OVC017
     FM281400 27012G20KT P6SM OVC025=



000
FTUS41 KRNK 280210 AAA
TAFLWB
TAF AMD
KLWB 280210Z 2802/2824 25007KT P6SM SCT030 OVC050
      TEMPO 2804/2806 3SM -TSRA BR BKN017CB
     FM280600 27010G16KT 4SM -SHRA BR BKN017 OVC027
     FM281000 27007KT P6SM VCSH OVC017
     FM281400 27012G20KT P6SM OVC025=



000
FTUS41 KRNK 272341 RRA
TAFROA
TAF
KROA 272341Z 2800/2818 23008KT P6SM SCT050 BKN150 OVC250
     FM280300 24008KT P6SM VCTS BKN050CB OVC080
      TEMPO 2803/2806 5SM SHRA BR BKN035
     FM280600 27015G25KT P6SM OVC035
     FM281400 29016G30KT P6SM BKN045=



000
FTUS41 KRNK 272341 RRA
TAFBLF
TAF
KBLF 272341Z 2800/2818 27011G20KT P6SM SCT030 BKN080 OVC250
     FM280200 26010KT P6SM VCTS BKN025CB OVC050
      TEMPO 2802/2806 3SM -TSRA BR BKN015CB
     FM280600 27012G22KT 5SM -SHRA BR BKN015 OVC025
     FM280900 27010G20KT P6SM VCSH OVC015
     FM281400 28015G27KT P6SM OVC023=



000
FTUS41 KRNK 272341 RRA
TAFLYH
TAF
KLYH 272341Z 2800/2818 21006KT P6SM SCT060 BKN150 OVC250
     FM280300 23007KT P6SM VCTS BKN050CB
      TEMPO 2803/2807 5SM SHRA BR BKN035
     FM280700 27008KT P6SM OVC040
     FM281400 28010G18KT P6SM BKN050
     FM281600 28011G19KT P6SM SCT050=



000
FTUS41 KRNK 272341 RRA
TAFLWB
TAF
KLWB 272341Z 2800/2818 25006KT P6SM SCT035 BKN080 OVC250
     FM280200 26007KT P6SM VCTS BKN027CB OVC050
      TEMPO 2802/2806 3SM -TSRA BR BKN017CB
     FM280600 27010G16KT 4SM -SHRA BR BKN017 OVC027
     FM281000 27007KT P6SM VCSH OVC017
     FM281400 27012G20KT P6SM OVC025=



000
FTUS41 KRNK 272341 RRA
TAFDAN
TAF
KDAN 272341Z 2800/2818 21007KT P6SM SCT050 BKN150 OVC250
     FM280300 23008KT P6SM VCTS BKN045CB
      TEMPO 2803/2807 4SM TSRA BR BKN030CB
     FM280800 26007KT P6SM BKN040 OVC150
     FM281500 29013G23KT P6SM SCT060=



000
FTUS41 KRNK 272341 RRA
TAFDAN
TAF
KDAN 272341Z 2800/2818 21007KT P6SM SCT050 BKN150 OVC250
     FM280300 23008KT P6SM VCTS BKN045CB
      TEMPO 2803/2807 4SM TSRA BR BKN030CB
     FM280800 26007KT P6SM BKN040 OVC150
     FM281500 29013G23KT P6SM SCT060=



000
FTUS41 KRNK 272341 RRA
TAFBLF
TAF
KBLF 272341Z 2800/2818 27011G20KT P6SM SCT030 BKN080 OVC250
     FM280200 26010KT P6SM VCTS BKN025CB OVC050
      TEMPO 2802/2806 3SM -TSRA BR BKN015CB
     FM280600 27012G22KT 5SM -SHRA BR BKN015 OVC025
     FM280900 27010G20KT P6SM VCSH OVC015
     FM281400 28015G27KT P6SM OVC023=



000
FTUS41 KRNK 272341 RRA
TAFLWB
TAF
KLWB 272341Z 2800/2818 25006KT P6SM SCT035 BKN080 OVC250
     FM280200 26007KT P6SM VCTS BKN027CB OVC050
      TEMPO 2802/2806 3SM -TSRA BR BKN017CB
     FM280600 27010G16KT 4SM -SHRA BR BKN017 OVC027
     FM281000 27007KT P6SM VCSH OVC017
     FM281400 27012G20KT P6SM OVC025=



000
FTUS41 KRNK 272341 RRA
TAFROA
TAF
KROA 272341Z 2800/2818 23008KT P6SM SCT050 BKN150 OVC250
     FM280300 24008KT P6SM VCTS BKN050CB OVC080
      TEMPO 2803/2806 5SM SHRA BR BKN035
     FM280600 27015G25KT P6SM OVC035
     FM281400 29016G30KT P6SM BKN045=



000
FTUS41 KRNK 272341 RRA
TAFLYH
TAF
KLYH 272341Z 2800/2818 21006KT P6SM SCT060 BKN150 OVC250
     FM280300 23007KT P6SM VCTS BKN050CB
      TEMPO 2803/2807 5SM SHRA BR BKN035
     FM280700 27008KT P6SM OVC040
     FM281400 28010G18KT P6SM BKN050
     FM281600 28011G19KT P6SM SCT050=



000
FTUS41 KRNK 271954 AAA
TAFROA
TAF AMD
KROA 271954Z 2720/2818 25006KT P6SM BKN035 OVC080
     FM272200 24009KT P6SM VCSH BKN040
     FM280100 22009KT P6SM -SHRA VCTS BKN050CB
     FM280600 27015G25KT P6SM BKN045
     FM281400 29016G30KT P6SM BKN050=



000
FTUS41 KRNK 271954 AAA
TAFROA
TAF AMD
KROA 271954Z 2720/2818 25006KT P6SM BKN035 OVC080
     FM272200 24009KT P6SM VCSH BKN040
     FM280100 22009KT P6SM -SHRA VCTS BKN050CB
     FM280600 27015G25KT P6SM BKN045
     FM281400 29016G30KT P6SM BKN050=



000
FTUS41 KRNK 271954 AAA
TAFLYH
TAF AMD
KLYH 271954Z 2720/2818 25007KT P6SM SCT035 BKN100
     FM272200 22007KT P6SM VCSH BKN040
     FM280200 23010KT P6SM -SHRA VCTS BKN040CB
     FM280600 27009KT P6SM BKN060 BKN120
     FM281400 25010G18KT P6SM SCT060=



000
FTUS41 KRNK 271954 AAA
TAFLYH
TAF AMD
KLYH 271954Z 2720/2818 25007KT P6SM SCT035 BKN100
     FM272200 22007KT P6SM VCSH BKN040
     FM280200 23010KT P6SM -SHRA VCTS BKN040CB
     FM280600 27009KT P6SM BKN060 BKN120
     FM281400 25010G18KT P6SM SCT060=



000
FTUS41 KRNK 271953 AAB
TAFLWB
TAF AMD
KLWB 271953Z 2720/2818 22011KT P6SM VCSH SCT020 BKN035
     FM280000 26007KT 6SM -SHRA VCTS BKN050CB
     FM280400 26008KT P6SM BKN050
     FM281000 27006KT P6SM SCT015 BKN035
     FM281500 28012G22KT P6SM BKN035=



000
FTUS41 KRNK 271953 AAB
TAFLWB
TAF AMD
KLWB 271953Z 2720/2818 22011KT P6SM VCSH SCT020 BKN035
     FM280000 26007KT 6SM -SHRA VCTS BKN050CB
     FM280400 26008KT P6SM BKN050
     FM281000 27006KT P6SM SCT015 BKN035
     FM281500 28012G22KT P6SM BKN035=



000
FTUS41 KRNK 271932 AAA
TAFBLF
TAF AMD
KBLF 271932Z 2720/2818 24012G22KT P6SM -SHRA BKN040 BKN100
     FM272300 26012G22KT 6SM -SHRA VCTS BKN035CB
      TEMPO 2723/2802 2SM TSRA BR OVC025CB
     FM280400 26010KT P6SM BKN050
     FM280900 27012KT P6SM BKN025 OVC035
     FM281400 29013G26KT P6SM BKN015 BKN030=



000
FTUS41 KRNK 271932 AAA
TAFBLF
TAF AMD
KBLF 271932Z 2720/2818 24012G22KT P6SM -SHRA BKN040 BKN100
     FM272300 26012G22KT 6SM -SHRA VCTS BKN035CB
      TEMPO 2723/2802 2SM TSRA BR OVC025CB
     FM280400 26010KT P6SM BKN050
     FM280900 27012KT P6SM BKN025 OVC035
     FM281400 29013G26KT P6SM BKN015 BKN030=



000
FTUS41 KRNK 271931 AAA
TAFLWB
TAF AMD
KLWB 271931Z 2720/2818 22011KT P6SM VCSH SCT020 BKN035
     FM272300 26007KT 6SM -SHRA VCTS BKN050CB
      TEMPO 2723/2802 3SM TSRA BR OVC035CB
     FM280400 26008KT P6SM BKN050
     FM281000 27006KT P6SM SCT015 BKN035
     FM281500 28012G22KT P6SM BKN035=



000
FTUS41 KRNK 271931 AAA
TAFLWB
TAF AMD
KLWB 271931Z 2720/2818 22011KT P6SM VCSH SCT020 BKN035
     FM272300 26007KT 6SM -SHRA VCTS BKN050CB
      TEMPO 2723/2802 3SM TSRA BR OVC035CB
     FM280400 26008KT P6SM BKN050
     FM281000 27006KT P6SM SCT015 BKN035
     FM281500 28012G22KT P6SM BKN035=



000
FTUS41 KRNK 271730 CCA
TAFLWB
TAF COR
KLWB 271730Z 2718/2818 21006KT P6SM VCSH SCT008 BKN015
     FM272000 25008KT P6SM VCTS BKN030CB
     FM272300 26007KT 5SM -SHRA VCTS BKN050CB
      TEMPO 2723/2802 3SM TSRA BR OVC035CB
     FM280400 26008KT P6SM BKN050
     FM281000 27006KT P6SM SCT015 BKN035
     FM281500 28012G22KT P6SM BKN035=



000
FTUS41 KRNK 271730 CCA
TAFLWB
TAF COR
KLWB 271730Z 2718/2818 21006KT P6SM VCSH SCT008 BKN015
     FM272000 25008KT P6SM VCTS BKN030CB
     FM272300 26007KT 5SM -SHRA VCTS BKN050CB
      TEMPO 2723/2802 3SM TSRA BR OVC035CB
     FM280400 26008KT P6SM BKN050
     FM281000 27006KT P6SM SCT015 BKN035
     FM281500 28012G22KT P6SM BKN035=



000
FTUS41 KRNK 271723
TAFLYH
TAF
KLYH 271723Z 2718/2818 25008KT P6SM VCSH BKN045 BKN080
     FM272200 22007KT P6SM VCTS BKN040CB
     FM280200 23010KT P6SM -SHRA VCTS BKN040CB
     FM280600 27009KT P6SM BKN060 BKN120
     FM281400 25010G18KT P6SM SCT060=



000
FTUS41 KRNK 271723
TAFLWB
TAF
KLWB 271723Z 2718/2818 00000KT P6SM VCSH SCT005 BKN025
     FM272000 25008KT P6SM VCTS BKN040CB
     FM272300 26007KT 5SM -SHRA VCTS BKN050CB
      TEMPO 2723/2802 3SM TSRA BR OVC035CB
     FM280400 26008KT P6SM BKN050
     FM281000 27006KT P6SM SCT015 BKN035
     FM281500 28012G22KT P6SM BKN035=



000
FTUS41 KRNK 271723
TAFBLF
TAF
KBLF 271723Z 2718/2818 25007KT P6SM VCSH SCT035 BKN060
     FM272000 25012G22KT P6SM VCTS BKN040CB
     FM272300 26012G22KT 4SM -SHRA VCTS BKN040CB
      TEMPO 2723/2802 2SM TSRA BR OVC025CB
     FM280400 26010KT P6SM BKN050
     FM280900 27012KT P6SM BKN025 OVC035
     FM281400 29013G26KT P6SM BKN015 BKN030=



000
FTUS41 KRNK 271723
TAFDAN
TAF
KDAN 271723Z 2718/2818 22009KT P6SM VCSH SCT045 BKN070
     FM272200 22009KT P6SM VCTS BKN040CB
      TEMPO 2800/2803 VRB20G30KT 2SM TSRA BKN025CB
     FM280300 23009KT P6SM -SHRA VCTS BKN040CB
     FM280600 26009KT P6SM SCT050 BKN080
     FM281400 27014G25KT P6SM SCT060=



000
FTUS41 KRNK 271723
TAFROA
TAF
KROA 271723Z 2718/2818 26010KT P6SM VCSH SCT025 BKN050
     FM272100 24009KT P6SM VCTS BKN040CB
     FM280100 22009KT P6SM -SHRA VCTS BKN050CB
     FM280600 27015G25KT P6SM BKN045
     FM281400 29016G30KT P6SM BKN050=



000
FTUS41 KRNK 271723
TAFBLF
TAF
KBLF 271723Z 2718/2818 25007KT P6SM VCSH SCT035 BKN060
     FM272000 25012G22KT P6SM VCTS BKN040CB
     FM272300 26012G22KT 4SM -SHRA VCTS BKN040CB
      TEMPO 2723/2802 2SM TSRA BR OVC025CB
     FM280400 26010KT P6SM BKN050
     FM280900 27012KT P6SM BKN025 OVC035
     FM281400 29013G26KT P6SM BKN015 BKN030=



000
FTUS41 KRNK 271723
TAFDAN
TAF
KDAN 271723Z 2718/2818 22009KT P6SM VCSH SCT045 BKN070
     FM272200 22009KT P6SM VCTS BKN040CB
      TEMPO 2800/2803 VRB20G30KT 2SM TSRA BKN025CB
     FM280300 23009KT P6SM -SHRA VCTS BKN040CB
     FM280600 26009KT P6SM SCT050 BKN080
     FM281400 27014G25KT P6SM SCT060=



000
FTUS41 KRNK 271723
TAFROA
TAF
KROA 271723Z 2718/2818 26010KT P6SM VCSH SCT025 BKN050
     FM272100 24009KT P6SM VCTS BKN040CB
     FM280100 22009KT P6SM -SHRA VCTS BKN050CB
     FM280600 27015G25KT P6SM BKN045
     FM281400 29016G30KT P6SM BKN050=



000
FTUS41 KRNK 271723
TAFLYH
TAF
KLYH 271723Z 2718/2818 25008KT P6SM VCSH BKN045 BKN080
     FM272200 22007KT P6SM VCTS BKN040CB
     FM280200 23010KT P6SM -SHRA VCTS BKN040CB
     FM280600 27009KT P6SM BKN060 BKN120
     FM281400 25010G18KT P6SM SCT060=



000
FTUS41 KRNK 271723
TAFLWB
TAF
KLWB 271723Z 2718/2818 00000KT P6SM VCSH SCT005 BKN025
     FM272000 25008KT P6SM VCTS BKN040CB
     FM272300 26007KT 5SM -SHRA VCTS BKN050CB
      TEMPO 2723/2802 3SM TSRA BR OVC035CB
     FM280400 26008KT P6SM BKN050
     FM281000 27006KT P6SM SCT015 BKN035
     FM281500 28012G22KT P6SM BKN035=



000
FTUS41 KRNK 271510 AAA
TAFROA
TAF AMD
KROA 271510Z 2715/2812 26009KT P6SM -SHRA VCTS SCT030 BKN050CB
      TEMPO 2715/2717 2SM SHRA OVC025
     FM272200 24009KT P6SM VCTS BKN040CB
     FM280100 22009KT P6SM -SHRA VCTS BKN050CB
     FM280600 27015G25KT P6SM BKN120=



000
FTUS41 KRNK 271510 AAA
TAFROA
TAF AMD
KROA 271510Z 2715/2812 26009KT P6SM -SHRA VCTS SCT030 BKN050CB
      TEMPO 2715/2717 2SM SHRA OVC025
     FM272200 24009KT P6SM VCTS BKN040CB
     FM280100 22009KT P6SM -SHRA VCTS BKN050CB
     FM280600 27015G25KT P6SM BKN120=



000
FTUS41 KRNK 271505 CCA
TAFLYH
TAF COR
KLYH 271505Z 2715/2812 21008KT P6SM VCSH BKN007 BKN050
      TEMPO 2716/2718 3SM TSRA BR OVC035CB
     FM271800 25007KT P6SM VCTS SCT040CB BKN200
     FM272300 22007KT P6SM VCTS BKN040CB
     FM280200 23010KT P6SM -SHRA VCTS BKN040CB
     FM280600 27009KT P6SM BKN120=



000
FTUS41 KRNK 271504 AAB
TAFLYH
TAF AMD
KLYH 271504Z 2715/2812 21008KT P6SM VCSH SCT007 BKN050
      TEMPO 2716/2718 3SM TSRA BR OVC035CB
     FM271800 25007KT P6SM VCTS SCT040CB BKN200
     FM272300 22007KT P6SM VCTS BKN040CB
     FM280200 23010KT P6SM -SHRA VCTS BKN040CB
     FM280600 27009KT P6SM BKN120=



000
FTUS41 KRNK 271504 AAB
TAFLYH
TAF AMD
KLYH 271504Z 2715/2812 21008KT P6SM VCSH SCT007 BKN050
      TEMPO 2716/2718 3SM TSRA BR OVC035CB
     FM271800 25007KT P6SM VCTS SCT040CB BKN200
     FM272300 22007KT P6SM VCTS BKN040CB
     FM280200 23010KT P6SM -SHRA VCTS BKN040CB
     FM280600 27009KT P6SM BKN120=



000
FTUS41 KRNK 271503 AAB
TAFDAN
TAF AMD
KDAN 271503Z 2715/2812 22008KT P6SM -SHRA BKN045 OVC060
      TEMPO 2715/2716 3SM SHRA BKN035
     FM271800 25010G17KT P6SM SCT050 BKN120
     FM272300 22009KT P6SM VCTS BKN040CB
      TEMPO 2800/2803 VRB20G30KT 2SM TSRA BKN025CB
     FM280300 23009KT P6SM -SHRA VCTS BKN040CB
     FM280600 26009KT P6SM BKN120=



000
FTUS41 KRNK 271503 AAB
TAFDAN
TAF AMD
KDAN 271503Z 2715/2812 22008KT P6SM -SHRA BKN045 OVC060
      TEMPO 2715/2716 3SM SHRA BKN035
     FM271800 25010G17KT P6SM SCT050 BKN120
     FM272300 22009KT P6SM VCTS BKN040CB
      TEMPO 2800/2803 VRB20G30KT 2SM TSRA BKN025CB
     FM280300 23009KT P6SM -SHRA VCTS BKN040CB
     FM280600 26009KT P6SM BKN120=



000
FTUS41 KRNK 271502 AAC
TAFBLF
TAF AMD
KBLF 271502Z 2715/2812 24007KT P6SM VCTS SCT035 BKN050CB
      TEMPO 2716/2718 4SM SHRA OVC035
     FM272000 25012G22KT P6SM VCTS BKN040CB
     FM272300 26012G22KT P6SM -SHRA VCTS BKN050CB
     FM280400 26010KT P6SM BKN050=



000
FTUS41 KRNK 271502 AAC
TAFBLF
TAF AMD
KBLF 271502Z 2715/2812 24007KT P6SM VCTS SCT035 BKN050CB
      TEMPO 2716/2718 4SM SHRA OVC035
     FM272000 25012G22KT P6SM VCTS BKN040CB
     FM272300 26012G22KT P6SM -SHRA VCTS BKN050CB
     FM280400 26010KT P6SM BKN050=



000
FTUS41 KRNK 271501 AAB
TAFLWB
TAF AMD
KLWB 271501Z 2715/2812 22008KT 5SM SHRA BR VCTS SCT015 OVC025CB
      TEMPO 2715/2717 1SM TSRA BR OVC015CB
     FM271700 26006KT P6SM VCSH BKN040 OVC060
     FM272000 25008KT P6SM VCTS BKN040CB
     FM272300 26007KT P6SM -SHRA VCTS BKN050CB
     FM280400 26008KT P6SM BKN050=



000
FTUS41 KRNK 271501 AAB
TAFLWB
TAF AMD
KLWB 271501Z 2715/2812 22008KT 5SM SHRA BR VCTS SCT015 OVC025CB
      TEMPO 2715/2717 1SM TSRA BR OVC015CB
     FM271700 26006KT P6SM VCSH BKN040 OVC060
     FM272000 25008KT P6SM VCTS BKN040CB
     FM272300 26007KT P6SM -SHRA VCTS BKN050CB
     FM280400 26008KT P6SM BKN050=



000
FTUS41 KRNK 271429 AAA
TAFLYH
TAF AMD
KLYH 271429Z 2714/2812 19005KT P6SM VCSH BKN007 BKN100
     FM271700 25007KT P6SM VCTS SCT040CB BKN200
     FM272300 22007KT P6SM VCTS BKN040CB PROB30 2723/2802 VRB20G40KT
      2SM TSRA BKN025CB
     FM280200 23010KT P6SM -SHRA VCTS BKN040CB
     FM280600 27009KT P6SM BKN120=



000
FTUS41 KRNK 271429 AAA
TAFLYH
TAF AMD
KLYH 271429Z 2714/2812 19005KT P6SM VCSH BKN007 BKN100
     FM271700 25007KT P6SM VCTS SCT040CB BKN200
     FM272300 22007KT P6SM VCTS BKN040CB PROB30 2723/2802 VRB20G40KT
      2SM TSRA BKN025CB
     FM280200 23010KT P6SM -SHRA VCTS BKN040CB
     FM280600 27009KT P6SM BKN120=



000
FTUS41 KRNK 271320 AAB
TAFBLF
TAF AMD
KBLF 271320Z 2713/2812 31008KT 4SM SHRA BR VCTS SCT025 BKN040CB
      TEMPO 2713/2715 1SM TSRA BR OVC025CB
     FM271600 26010KT P6SM SCT050 BKN200
     FM272000 25012G22KT P6SM VCTS BKN040CB
     FM272300 26012G22KT P6SM -SHRA VCTS BKN050CB
     FM280400 26010KT P6SM BKN050=



000
FTUS41 KRNK 271320 AAB
TAFBLF
TAF AMD
KBLF 271320Z 2713/2812 31008KT 4SM SHRA BR VCTS SCT025 BKN040CB
      TEMPO 2713/2715 1SM TSRA BR OVC025CB
     FM271600 26010KT P6SM SCT050 BKN200
     FM272000 25012G22KT P6SM VCTS BKN040CB
     FM272300 26012G22KT P6SM -SHRA VCTS BKN050CB
     FM280400 26010KT P6SM BKN050=



000
FTUS41 KRNK 271319 AAA
TAFDAN
TAF AMD
KDAN 271319Z 2713/2812 VRB03KT 5SM -SHRA BR BKN040 OVC090
     FM271600 25010G17KT P6SM SCT050 BKN120
     FM272300 22009KT P6SM VCTS BKN040CB
      TEMPO 2800/2803 VRB20G30KT 2SM TSRA BKN025CB
     FM280300 23009KT P6SM -SHRA VCTS BKN040CB
     FM280600 26009KT P6SM BKN120=



000
FTUS41 KRNK 271319 AAA
TAFDAN
TAF AMD
KDAN 271319Z 2713/2812 VRB03KT 5SM -SHRA BR BKN040 OVC090
     FM271600 25010G17KT P6SM SCT050 BKN120
     FM272300 22009KT P6SM VCTS BKN040CB
      TEMPO 2800/2803 VRB20G30KT 2SM TSRA BKN025CB
     FM280300 23009KT P6SM -SHRA VCTS BKN040CB
     FM280600 26009KT P6SM BKN120=



000
FTUS41 KRNK 271236 AAA
TAFBLF
TAF AMD
KBLF 271236Z 2713/2812 25007KT P6SM -SHRA BKN050 OVC100
      TEMPO 2713/2715 3SM TSRA BR OVC035CB
     FM271500 26010KT P6SM SCT050 BKN200
     FM272000 25012G22KT P6SM VCTS BKN040CB
     FM272300 26012G22KT P6SM -SHRA VCTS BKN050CB
     FM280400 26010KT P6SM BKN050=



000
FTUS41 KRNK 271236 AAA
TAFBLF
TAF AMD
KBLF 271236Z 2713/2812 25007KT P6SM -SHRA BKN050 OVC100
      TEMPO 2713/2715 3SM TSRA BR OVC035CB
     FM271500 26010KT P6SM SCT050 BKN200
     FM272000 25012G22KT P6SM VCTS BKN040CB
     FM272300 26012G22KT P6SM -SHRA VCTS BKN050CB
     FM280400 26010KT P6SM BKN050=



000
FTUS41 KRNK 271148 AAA
TAFLWB
TAF AMD
KLWB 271148Z 2712/2812 22005KT 4SM BR VCSH BKN004
     FM271300 24005KT P6SM VCSH SCT050 BKN200
     FM271600 26006KT P6SM SCT050 BKN200
     FM272000 25008KT P6SM VCTS BKN040CB PROB30 2721/2723 VRB25G35KT
      2SM TSRA BKN025CB
     FM272300 26007KT P6SM -SHRA VCTS BKN050CB
     FM280400 26008KT P6SM BKN050=



000
FTUS41 KRNK 271148 AAA
TAFLWB
TAF AMD
KLWB 271148Z 2712/2812 22005KT 4SM BR VCSH BKN004
     FM271300 24005KT P6SM VCSH SCT050 BKN200
     FM271600 26006KT P6SM SCT050 BKN200
     FM272000 25008KT P6SM VCTS BKN040CB PROB30 2721/2723 VRB25G35KT
      2SM TSRA BKN025CB
     FM272300 26007KT P6SM -SHRA VCTS BKN050CB
     FM280400 26008KT P6SM BKN050=



000
FTUS41 KRNK 271126
TAFLWB
TAF
KLWB 271126Z 2712/2812 22005KT 4SM BR VCSH BKN080
     FM271300 24005KT P6SM VCSH SCT050 BKN200
     FM271600 26006KT P6SM SCT050 BKN200
     FM272000 25008KT P6SM VCTS BKN040CB PROB30 2721/2723 VRB25G35KT
      2SM TSRA BKN025CB
     FM272300 26007KT P6SM -SHRA VCTS BKN050CB
     FM280400 26008KT P6SM BKN050=



000
FTUS41 KRNK 271126
TAFROA
TAF
KROA 271126Z 2712/2812 27005KT P6SM VCSH BKN080
     FM271500 25007KT P6SM VCTS SCT040CB BKN200
     FM272200 24009KT P6SM VCTS BKN040CB PROB30 2722/2801 VRB25G35KT
      2SM TSRA BR BKN025CB
     FM280100 22009KT P6SM -SHRA VCTS BKN050CB
     FM280600 27015G25KT P6SM BKN120=



000
FTUS41 KRNK 271126
TAFDAN
TAF
KDAN 271126Z 2712/2812 26005KT P6SM VCSH BKN060
     FM271600 25010G17KT P6SM SCT050 BKN120
     FM272300 22009KT P6SM VCTS BKN040CB PROB30 2800/2803 VRB20G30KT
      2SM TSRA BKN025CB
     FM280300 23009KT P6SM -SHRA VCTS BKN040CB
     FM280600 26009KT P6SM BKN120=



000
FTUS41 KRNK 271126
TAFBLF
TAF
KBLF 271126Z 2712/2812 22005KT P6SM VCSH BKN120
     FM271500 26010KT P6SM SCT050 BKN200
     FM272000 25012G22KT P6SM VCTS BKN040CB PROB30 2721/2723
      VRB25G35KT 2SM TSRA BKN025CB
     FM272300 26012G22KT P6SM -SHRA VCTS BKN050CB
     FM280400 26010KT P6SM BKN050=



000
FTUS41 KRNK 271126
TAFLYH
TAF
KLYH 271126Z 2712/2812 20004KT P6SM VCSH BKN080
     FM271500 25007KT P6SM VCTS SCT040CB BKN200
     FM272300 22007KT P6SM VCTS BKN040CB PROB30 2723/2802 VRB20G40KT
      2SM TSRA BKN025CB
     FM280200 23010KT P6SM -SHRA VCTS BKN040CB
     FM280600 27009KT P6SM BKN120=



000
FTUS41 KRNK 271126
TAFDAN
TAF
KDAN 271126Z 2712/2812 26005KT P6SM VCSH BKN060
     FM271600 25010G17KT P6SM SCT050 BKN120
     FM272300 22009KT P6SM VCTS BKN040CB PROB30 2800/2803 VRB20G30KT
      2SM TSRA BKN025CB
     FM280300 23009KT P6SM -SHRA VCTS BKN040CB
     FM280600 26009KT P6SM BKN120=



000
FTUS41 KRNK 271126
TAFROA
TAF
KROA 271126Z 2712/2812 27005KT P6SM VCSH BKN080
     FM271500 25007KT P6SM VCTS SCT040CB BKN200
     FM272200 24009KT P6SM VCTS BKN040CB PROB30 2722/2801 VRB25G35KT
      2SM TSRA BR BKN025CB
     FM280100 22009KT P6SM -SHRA VCTS BKN050CB
     FM280600 27015G25KT P6SM BKN120=



000
FTUS41 KRNK 271126
TAFLYH
TAF
KLYH 271126Z 2712/2812 20004KT P6SM VCSH BKN080
     FM271500 25007KT P6SM VCTS SCT040CB BKN200
     FM272300 22007KT P6SM VCTS BKN040CB PROB30 2723/2802 VRB20G40KT
      2SM TSRA BKN025CB
     FM280200 23010KT P6SM -SHRA VCTS BKN040CB
     FM280600 27009KT P6SM BKN120=



000
FTUS41 KRNK 271126
TAFBLF
TAF
KBLF 271126Z 2712/2812 22005KT P6SM VCSH BKN120
     FM271500 26010KT P6SM SCT050 BKN200
     FM272000 25012G22KT P6SM VCTS BKN040CB PROB30 2721/2723
      VRB25G35KT 2SM TSRA BKN025CB
     FM272300 26012G22KT P6SM -SHRA VCTS BKN050CB
     FM280400 26010KT P6SM BKN050=



000
FTUS41 KRNK 271126
TAFLWB
TAF
KLWB 271126Z 2712/2812 22005KT 4SM BR VCSH BKN080
     FM271300 24005KT P6SM VCSH SCT050 BKN200
     FM271600 26006KT P6SM SCT050 BKN200
     FM272000 25008KT P6SM VCTS BKN040CB PROB30 2721/2723 VRB25G35KT
      2SM TSRA BKN025CB
     FM272300 26007KT P6SM -SHRA VCTS BKN050CB
     FM280400 26008KT P6SM BKN050=



000
FTUS41 KRNK 271005 AAA
TAFDAN
TAF AMD
KDAN 271005Z 2710/2806 25005KT P6SM -SHRA OVC050
     FM271100 25007KT P6SM BKN050 OVC250
     FM271800 23010G17KT P6SM BKN120 OVC250
     FM280100 22012KT P6SM -SHRA VCTS BKN050CB
     FM280300 26008KT 3SM -TSRA OVC035CB
     FM280500 27009KT P6SM -SHRA BKN035=



000
FTUS41 KRNK 271005 AAA
TAFDAN
TAF AMD
KDAN 271005Z 2710/2806 25005KT P6SM -SHRA OVC050
     FM271100 25007KT P6SM BKN050 OVC250
     FM271800 23010G17KT P6SM BKN120 OVC250
     FM280100 22012KT P6SM -SHRA VCTS BKN050CB
     FM280300 26008KT 3SM -TSRA OVC035CB
     FM280500 27009KT P6SM -SHRA BKN035=



    US Dept of Commerce
    National Oceanic and Atmospheric Administration
    National Weather Service
    1325 East West Highway
    Silver Spring, MD 20910
    Page Author: NWS Internet Services Team
Disclaimer
Information Quality
Credits
Glossary
Privacy Policy
Freedom of Information Act (FOIA)
About Us
Career Opportunities